KAFP

Anson County - Jeff Cloud Field Airport

Wadesboro, North Carolina, USA
METAR KAFP 231055Z AUTO 19008G17KT 10SM -RA SCT015 BKN022 OVC028 18/16 A2979 RMK AO2 P0001 T01800161
Observed Flight Rules
Jan-23 @ 10:55 UTC (an hour ago) Marginal Visual Flight Rules
Wind Visibility Clouds Conditions
190° at 8 knots
 Gusting to 17 knots
10 miles
  • Scattered at 1,500' AGL
  • Broken at 2,200' AGL
  • Overcast at 2,800' AGL
  • Light Rain
Temperatures Readings Precipitation
Current 18°C / 64°F
Dewpoint 16°C / 61°F
Humidity 88%
Altimeter 29.79" Hg
Pressure 1009 hPa
Elevation 92
Current Rain 0.01
METAR KAFP 231055Z AUTO 19008G17KT 10SM -RA SCT015 BKN022 OVC028 18/16 A2979 RMK AO2 P0001 T01800161
Observed Flight Rules
Jan-23 @ 10:55 UTC
(an hour ago)
MVFR
Wind Visibility
190° at 8 knots
 Gusting to 17 knots
10 miles
Clouds
  • Scattered at 1,500' AGL
  • Broken at 2,200' AGL
  • Overcast at 2,800' AGL
Conditions
  • Light Rain
Temperature Dewpoint
18°C / 64°F 16°C / 61°F
Humidity Altimeter Pressure
88% 29.79" Hg 1009 hPa
Current Rain
0.01